createdAt,value
2023-02-12T00:01:12.859Z,100.00
2023-02-12T00:03:26.091Z,100.00
2023-02-12T00:03:40.661Z,100.00
2023-02-12T00:06:09.235Z,100.00
2023-02-12T00:08:26.049Z,100.00
2023-02-12T00:08:36.438Z,100.00
2023-02-12T00:11:13.189Z,100.00
2023-02-12T00:13:26.075Z,100.00
2023-02-12T00:13:40.058Z,100.00
2023-02-12T00:16:09.445Z,100.00
2023-02-12T00:18:26.082Z,100.00
2023-02-12T00:18:36.125Z,100.00
2023-02-12T00:21:03.648Z,100.00
2023-02-12T00:23:26.077Z,100.00
2023-02-12T00:23:30.156Z,100.00
2023-02-12T00:25:56.918Z,100.00
2023-02-12T00:28:24.007Z,100.00
2023-02-12T00:28:26.171Z,100.00
2023-02-12T00:30:50.517Z,100.00
2023-02-12T00:33:17.048Z,100.00
2023-02-12T00:33:26.071Z,100.00
2023-02-12T00:35:43.996Z,100.00
2023-02-12T00:38:10.457Z,100.00
2023-02-12T00:38:26.075Z,100.00
2023-02-12T00:40:36.838Z,100.00
2023-02-12T00:43:03.390Z,100.00
2023-02-12T00:43:26.069Z,100.00
2023-02-12T00:45:29.774Z,100.00
2023-02-12T00:47:56.141Z,100.00
2023-02-12T00:48:26.091Z,100.00
2023-02-12T00:50:22.546Z,100.00
2023-02-12T00:52:48.922Z,100.00
2023-02-12T00:53:26.061Z,100.00
2023-02-12T00:55:15.410Z,100.00
2023-02-12T00:57:41.842Z,100.00
2023-02-12T00:58:26.063Z,100.00
2023-02-12T01:00:08.740Z,100.00
2023-02-12T01:02:35.132Z,100.00
2023-02-12T01:03:26.072Z,100.00
2023-02-12T01:05:01.632Z,100.00
2023-02-12T01:07:28.183Z,100.00
2023-02-12T01:08:26.073Z,100.00
2023-02-12T01:09:54.574Z,100.00
2023-02-12T01:12:20.978Z,100.00
2023-02-12T01:13:26.053Z,100.00
2023-02-12T01:14:47.380Z,100.00
2023-02-12T01:17:13.745Z,100.00
2023-02-12T01:18:26.071Z,100.00
2023-02-12T01:19:40.187Z,100.00
2023-02-12T01:22:06.595Z,100.00
2023-02-12T01:23:26.061Z,100.00
2023-02-12T01:24:32.972Z,100.00
2023-02-12T01:26:59.406Z,100.00
2023-02-12T01:28:26.130Z,100.00
2023-02-12T01:29:25.763Z,100.00
2023-02-12T01:31:52.450Z,100.00
2023-02-12T01:33:26.085Z,100.00
2023-02-12T01:34:18.956Z,100.00
2023-02-12T01:36:45.345Z,100.00
2023-02-12T01:38:26.105Z,100.00
2023-02-12T01:39:12.246Z,100.00
2023-02-12T01:41:44.925Z,100.00
2023-02-12T01:43:26.114Z,100.00
2023-02-12T01:44:14.399Z,100.00
2023-02-12T01:46:41.949Z,100.00
2023-02-12T01:48:26.113Z,100.00
2023-02-12T01:49:17.000Z,100.00
2023-02-12T01:51:46.159Z,100.00
2023-02-12T01:53:26.101Z,100.00
2023-02-12T01:54:15.238Z,100.00
2023-02-12T01:56:42.142Z,100.00
2023-02-12T01:58:26.068Z,100.00
2023-02-12T01:59:08.916Z,100.00
2023-02-12T02:01:35.700Z,100.00
2023-02-12T02:03:26.164Z,100.00
2023-02-12T02:04:24.892Z,100.00
2023-02-12T02:07:02.951Z,100.00
2023-02-12T02:08:26.105Z,100.00
2023-02-12T02:09:31.538Z,100.00
2023-02-12T02:12:16.549Z,100.00
2023-02-12T02:13:26.072Z,100.00
2023-02-12T02:14:44.332Z,100.00
2023-02-12T02:17:34.373Z,100.00
2023-02-12T02:18:26.081Z,100.00
2023-02-12T02:20:01.556Z,100.00
2023-02-12T02:22:41.022Z,100.00
2023-02-12T02:23:26.096Z,100.00
2023-02-12T02:25:22.441Z,100.00
2023-02-12T02:28:12.552Z,100.00
2023-02-12T02:28:26.339Z,100.00
2023-02-12T02:30:48.137Z,100.00
2023-02-12T02:33:25.952Z,100.00
2023-02-12T02:33:26.096Z,100.00
2023-02-12T02:36:15.609Z,100.00
2023-02-12T02:38:26.064Z,100.00
2023-02-12T02:38:45.566Z,100.00
2023-02-12T02:41:30.836Z,100.00
2023-02-12T02:43:26.063Z,100.00
2023-02-12T02:43:57.413Z,100.00
2023-02-12T02:46:32.528Z,100.00
2023-02-12T02:48:26.072Z,100.00
2023-02-12T02:49:03.155Z,100.00
2023-02-12T02:51:33.251Z,100.00
2023-02-12T02:53:26.114Z,100.00
2023-02-12T02:54:16.983Z,100.00
2023-02-12T02:56:45.898Z,100.00
2023-02-12T02:58:26.082Z,100.00
2023-02-12T02:59:16.943Z,100.00
2023-02-12T03:02:24.979Z,100.00
2023-02-12T03:03:26.200Z,100.00
2023-02-12T03:04:57.912Z,100.00
2023-02-12T03:07:50.042Z,100.00
2023-02-12T03:08:26.080Z,100.00
2023-02-12T03:10:47.134Z,100.00
2023-02-12T03:13:26.740Z,100.00
2023-02-12T03:13:26.898Z,100.00
2023-02-12T03:16:05.832Z,100.00
2023-02-12T03:18:26.118Z,100.00
2023-02-12T03:18:41.463Z,100.00
2023-02-12T03:21:13.551Z,100.00
2023-02-12T03:23:26.141Z,100.00
2023-02-12T03:23:46.521Z,100.00
2023-02-12T03:26:20.839Z,100.00
2023-02-12T03:28:26.221Z,100.00
2023-02-12T03:28:47.847Z,100.00
2023-02-12T03:31:23.731Z,100.00
2023-02-12T03:33:26.086Z,100.00
2023-02-12T03:34:11.992Z,100.00
2023-02-12T03:36:48.011Z,100.00
2023-02-12T03:38:26.117Z,100.00
2023-02-12T03:39:48.621Z,100.00
2023-02-12T03:42:32.675Z,100.00
2023-02-12T03:43:26.088Z,100.00
2023-02-12T03:45:20.785Z,100.00
2023-02-12T03:48:01.187Z,100.00
2023-02-12T03:48:26.127Z,100.00
2023-02-12T03:50:46.260Z,100.00
2023-02-12T03:53:12.780Z,100.00
2023-02-12T03:53:26.116Z,100.00
2023-02-12T03:55:43.274Z,100.00
2023-02-12T03:58:14.623Z,100.00
2023-02-12T03:58:26.104Z,100.00
2023-02-12T04:00:41.073Z,100.00
2023-02-12T04:03:07.753Z,100.00
2023-02-12T04:03:26.114Z,100.00
2023-02-12T04:05:34.178Z,100.00
2023-02-12T04:08:04.213Z,100.00
2023-02-12T04:08:26.095Z,100.00
2023-02-12T04:10:49.141Z,100.00
2023-02-12T04:13:40.338Z,100.00
2023-02-12T04:13:40.492Z,100.00
2023-02-12T04:16:33.182Z,100.00
2023-02-12T04:18:26.072Z,100.00
2023-02-12T04:19:00.709Z,100.00
2023-02-12T04:21:51.952Z,100.00
2023-02-12T04:23:26.107Z,100.00
2023-02-12T04:24:49.097Z,100.00
2023-02-12T04:27:44.151Z,100.00
2023-02-12T04:28:26.193Z,100.00
2023-02-12T04:30:24.768Z,100.00
2023-02-12T04:32:55.866Z,100.00
2023-02-12T04:33:26.091Z,100.00
2023-02-12T04:35:31.288Z,100.00
2023-02-12T04:38:06.550Z,100.00
2023-02-12T04:38:26.148Z,100.00
2023-02-12T04:40:33.155Z,100.00
2023-02-12T04:42:59.523Z,100.00
2023-02-12T04:43:26.150Z,100.00
2023-02-12T04:45:29.113Z,100.00
2023-02-12T04:47:55.763Z,100.00
2023-02-12T04:48:26.092Z,100.00
2023-02-12T04:50:22.730Z,100.00
2023-02-12T04:52:49.180Z,100.00
2023-02-12T04:53:26.103Z,100.00
2023-02-12T04:55:15.558Z,100.00
2023-02-12T04:57:42.047Z,100.00
2023-02-12T04:58:26.120Z,100.00
2023-02-12T05:00:15.519Z,100.00
2023-02-12T05:02:41.854Z,100.00
2023-02-12T05:03:26.114Z,100.00
2023-02-12T05:05:08.648Z,100.00
2023-02-12T05:07:35.116Z,100.00
2023-02-12T05:08:26.120Z,100.00
2023-02-12T05:10:01.507Z,100.00
2023-02-12T05:12:27.940Z,100.00
2023-02-12T05:13:26.117Z,100.00
2023-02-12T05:14:54.346Z,100.00
2023-02-12T05:17:23.488Z,100.00
2023-02-12T05:18:26.152Z,100.00
2023-02-12T05:19:50.240Z,100.00
2023-02-12T05:22:17.077Z,100.00
2023-02-12T05:23:26.127Z,100.00
2023-02-12T05:24:43.604Z,100.00
2023-02-12T05:27:09.969Z,100.00
2023-02-12T05:28:26.202Z,100.00
2023-02-12T05:29:37.120Z,100.00
2023-02-12T05:32:04.148Z,100.00
2023-02-12T05:33:26.121Z,100.00
2023-02-12T05:34:30.625Z,100.00
2023-02-12T05:36:57.014Z,100.00
2023-02-12T05:38:26.125Z,100.00
2023-02-12T05:39:23.775Z,100.00
2023-02-12T05:41:50.166Z,100.00
2023-02-12T05:43:26.125Z,100.00
2023-02-12T05:44:16.666Z,100.00
2023-02-12T05:46:43.571Z,100.00
2023-02-12T05:48:26.124Z,100.00
2023-02-12T05:49:10.910Z,100.00
2023-02-12T05:51:37.920Z,100.00
2023-02-12T05:53:26.091Z,100.00
2023-02-12T05:54:06.259Z,100.00
2023-02-12T05:56:44.386Z,100.00
2023-02-12T05:58:26.119Z,100.00
2023-02-12T05:59:29.071Z,100.00
2023-02-12T06:01:55.530Z,100.00
2023-02-12T06:03:26.106Z,100.00
2023-02-12T06:04:24.893Z,100.00
2023-02-12T06:06:52.278Z,100.00
2023-02-12T06:08:26.123Z,100.00
2023-02-12T06:09:19.180Z,100.00
2023-02-12T06:11:45.718Z,100.00
2023-02-12T06:13:26.124Z,100.00
2023-02-12T06:14:17.568Z,100.00
2023-02-12T06:16:48.315Z,100.00
2023-02-12T06:18:26.091Z,100.00
2023-02-12T06:19:15.035Z,100.00
2023-02-12T06:21:41.880Z,100.00
2023-02-12T06:23:26.148Z,100.00
2023-02-12T06:24:08.372Z,100.00
2023-02-12T06:26:34.808Z,100.00
2023-02-12T06:28:26.116Z,100.00
2023-02-12T06:29:01.504Z,100.00
2023-02-12T06:31:31.058Z,100.00
2023-02-12T06:33:26.099Z,100.00
2023-02-12T06:34:00.667Z,100.00
2023-02-12T06:36:29.225Z,100.00
2023-02-12T06:38:26.137Z,100.00
2023-02-12T06:38:55.650Z,100.00
2023-02-12T06:41:23.598Z,100.00
2023-02-12T06:43:26.119Z,100.00
2023-02-12T06:43:50.490Z,100.00
2023-02-12T06:46:17.883Z,100.00
2023-02-12T06:48:26.127Z,100.00
2023-02-12T06:48:44.434Z,100.00
2023-02-12T06:51:14.451Z,100.00
2023-02-12T06:53:26.126Z,100.00
2023-02-12T06:53:41.137Z,100.00
2023-02-12T06:56:13.131Z,100.00
2023-02-12T06:58:26.133Z,100.00
2023-02-12T06:58:41.990Z,100.00
2023-02-12T07:01:13.687Z,100.00
2023-02-12T07:03:26.153Z,100.00
2023-02-12T07:04:16.180Z,100.00
2023-02-12T07:06:42.800Z,100.00
2023-02-12T07:08:26.127Z,100.00
2023-02-12T07:09:09.222Z,100.00
2023-02-12T07:11:38.294Z,100.00
2023-02-12T07:13:26.124Z,100.00
2023-02-12T07:14:05.217Z,100.00
2023-02-12T07:16:31.684Z,100.00
2023-02-12T07:18:26.118Z,100.00
2023-02-12T07:18:58.156Z,100.00
2023-02-12T07:21:26.878Z,100.00
2023-02-12T07:23:26.124Z,100.00
2023-02-12T07:23:53.446Z,100.00
2023-02-12T07:26:21.423Z,100.00
2023-02-12T07:28:26.236Z,100.00
2023-02-12T07:28:48.524Z,100.00
2023-02-12T07:31:18.386Z,100.00
2023-02-12T07:33:26.111Z,100.00
2023-02-12T07:33:45.462Z,100.00
2023-02-12T07:36:18.500Z,100.00
2023-02-12T07:38:26.136Z,100.00
2023-02-12T07:38:45.258Z,100.00
2023-02-12T07:41:18.159Z,100.00
2023-02-12T07:43:26.115Z,100.00
2023-02-12T07:43:46.718Z,100.00
2023-02-12T07:46:17.008Z,100.00
2023-02-12T07:48:26.153Z,100.00
2023-02-12T07:48:44.284Z,100.00
2023-02-12T07:51:13.850Z,100.00
2023-02-12T07:53:26.182Z,100.00
2023-02-12T07:53:40.805Z,100.00
2023-02-12T07:56:09.696Z,100.00
2023-02-12T07:58:26.112Z,100.00
2023-02-12T07:58:37.112Z,100.00
2023-02-12T08:01:13.474Z,100.00
2023-02-12T08:03:26.121Z,100.00
2023-02-12T08:03:39.959Z,100.00
2023-02-12T08:06:23.220Z,100.00
2023-02-12T08:08:26.170Z,100.00
2023-02-12T08:08:58.327Z,100.00
2023-02-12T08:11:25.917Z,100.00
2023-02-12T08:13:26.112Z,100.00
2023-02-12T08:13:52.410Z,100.00
2023-02-12T08:16:21.960Z,100.00
2023-02-12T08:18:26.134Z,100.00
2023-02-12T08:18:48.881Z,100.00
2023-02-12T08:21:26.720Z,100.00
2023-02-12T08:23:26.121Z,100.00
2023-02-12T08:23:58.063Z,100.00
2023-02-12T08:26:33.734Z,100.00
2023-02-12T08:28:26.194Z,100.00
2023-02-12T08:29:03.507Z,100.00
2023-02-12T08:31:32.842Z,100.00
2023-02-12T08:33:26.163Z,100.00
2023-02-12T08:34:00.747Z,100.00
2023-02-12T08:36:35.852Z,100.00
2023-02-12T08:38:26.146Z,100.00
2023-02-12T08:39:02.420Z,100.00
2023-02-12T08:41:29.894Z,100.00
2023-02-12T08:43:26.154Z,100.00
2023-02-12T08:44:01.525Z,100.00
2023-02-12T08:46:31.076Z,100.00
2023-02-12T08:48:26.125Z,100.00
2023-02-12T08:49:01.013Z,100.00
2023-02-12T08:51:31.580Z,100.00
2023-02-12T08:53:26.149Z,100.00
2023-02-12T08:54:01.011Z,100.00
2023-02-12T08:56:30.050Z,100.00
2023-02-12T08:58:26.136Z,100.00
2023-02-12T08:59:00.694Z,100.00
2023-02-12T09:01:29.367Z,100.00
2023-02-12T09:03:26.126Z,100.00
2023-02-12T09:03:56.474Z,100.00
2023-02-12T09:06:24.686Z,100.00
2023-02-12T09:08:26.116Z,100.00
2023-02-12T09:08:52.106Z,100.00
2023-02-12T09:11:24.374Z,100.00
2023-02-12T09:13:26.128Z,100.00
2023-02-12T09:13:50.960Z,100.00
2023-02-12T09:16:17.368Z,100.00
2023-02-12T09:18:26.145Z,100.00
2023-02-12T09:18:45.160Z,100.00
2023-02-12T09:21:14.571Z,100.00
2023-02-12T09:23:26.159Z,100.00
2023-02-12T09:23:42.214Z,100.00
2023-02-12T09:26:15.175Z,100.00
2023-02-12T09:28:26.211Z,100.00
2023-02-12T09:28:42.360Z,100.00
2023-02-12T09:31:29.257Z,100.00
2023-02-12T09:33:26.113Z,100.00
2023-02-12T09:33:59.600Z,100.00
2023-02-12T09:36:26.366Z,100.00
2023-02-12T09:38:26.146Z,100.00
2023-02-12T09:38:54.179Z,100.00
2023-02-12T09:41:32.133Z,100.00
2023-02-12T09:43:26.165Z,100.00
2023-02-12T09:44:20.650Z,100.00
2023-02-12T09:46:53.980Z,100.00
2023-02-12T09:48:26.143Z,100.00
2023-02-12T09:49:49.908Z,100.00
2023-02-12T09:52:20.034Z,100.00
2023-02-12T09:53:26.142Z,100.00
2023-02-12T09:54:48.322Z,100.00
2023-02-12T09:57:31.054Z,100.00
2023-02-12T09:58:26.141Z,100.00
2023-02-12T10:00:08.214Z,100.00
2023-02-12T10:02:39.884Z,100.00
2023-02-12T10:03:26.154Z,100.00
2023-02-12T10:05:16.160Z,100.00
2023-02-12T10:08:01.463Z,100.00
2023-02-12T10:08:26.149Z,100.00
2023-02-12T10:10:48.947Z,100.00
2023-02-12T10:13:25.107Z,100.00
2023-02-12T10:13:26.142Z,100.00
2023-02-12T10:15:56.388Z,100.00
2023-02-12T10:18:50.941Z,100.00
2023-02-12T10:18:51.091Z,100.00
2023-02-12T10:21:35.596Z,100.00
2023-02-12T10:23:26.142Z,100.00
2023-02-12T10:24:23.839Z,100.00
2023-02-12T10:26:55.572Z,100.00
2023-02-12T10:28:26.283Z,100.00
2023-02-12T10:29:28.775Z,100.00
2023-02-12T10:32:00.603Z,100.00
2023-02-12T10:33:26.122Z,100.00
2023-02-12T10:34:33.669Z,100.00
2023-02-12T10:37:14.788Z,100.00
2023-02-12T10:38:26.151Z,100.00
2023-02-12T10:39:48.522Z,100.00
2023-02-12T10:42:30.260Z,100.00
2023-02-12T10:43:26.127Z,100.00
2023-02-12T10:44:56.678Z,100.00
2023-02-12T10:47:26.242Z,100.00
2023-02-12T10:48:26.134Z,100.00
2023-02-12T10:49:59.292Z,100.00
2023-02-12T10:52:47.211Z,100.00
2023-02-12T10:53:26.119Z,100.00
2023-02-12T10:55:26.343Z,100.00
2023-02-12T10:57:53.581Z,100.00
2023-02-12T10:58:26.155Z,100.00
2023-02-12T11:00:30.520Z,100.00
2023-02-12T11:03:10.770Z,100.00
2023-02-12T11:03:26.142Z,100.00
2023-02-12T11:05:43.797Z,100.00
2023-02-12T11:08:36.113Z,100.00
2023-02-12T11:08:36.255Z,100.00
2023-02-12T11:11:06.234Z,100.00
2023-02-12T11:13:26.175Z,100.00
2023-02-12T11:13:32.764Z,100.00
2023-02-12T11:16:01.076Z,100.00
2023-02-12T11:18:26.290Z,100.00
2023-02-12T11:18:32.824Z,100.00
2023-02-12T11:21:06.921Z,100.00
2023-02-12T11:23:26.153Z,100.00
2023-02-12T11:23:38.147Z,100.00
2023-02-12T11:26:06.721Z,100.00
2023-02-12T11:28:26.371Z,100.00
2023-02-12T11:28:36.554Z,100.00
2023-02-12T11:31:13.737Z,100.00
2023-02-12T11:33:26.131Z,100.00
2023-02-12T11:33:40.359Z,100.00
2023-02-12T11:36:26.102Z,100.00
2023-02-12T11:38:26.221Z,100.00
2023-02-12T11:38:57.981Z,100.00
2023-02-12T11:41:36.204Z,100.00
2023-02-12T11:43:26.160Z,100.00
2023-02-12T11:44:12.078Z,100.00
2023-02-12T11:46:39.999Z,100.00
2023-02-12T11:48:26.251Z,100.00
2023-02-12T11:49:09.323Z,100.00
2023-02-12T11:51:37.583Z,100.00
2023-02-12T11:53:26.165Z,100.00
2023-02-12T11:54:06.180Z,100.00
2023-02-12T11:56:46.647Z,100.00
2023-02-12T11:58:26.161Z,100.00
2023-02-12T11:59:31.774Z,100.00
2023-02-12T12:02:05.083Z,100.00
2023-02-12T12:03:26.219Z,100.00
2023-02-12T12:04:34.418Z,100.00
2023-02-12T12:07:08.606Z,100.00
2023-02-12T12:08:26.154Z,100.00
2023-02-12T12:10:19.716Z,100.00
2023-02-12T12:12:51.106Z,99.62
2023-02-12T12:13:26.175Z,99.62
2023-02-12T12:16:03.562Z,99.06
2023-02-12T12:18:26.156Z,99.06
2023-02-12T12:19:04.867Z,98.28
2023-02-12T12:22:04.068Z,95.80
2023-02-12T12:23:26.150Z,95.80
2023-02-12T12:24:57.285Z,95.46
2023-02-12T12:28:01.149Z,95.03
2023-02-12T12:28:26.228Z,95.03
2023-02-12T12:30:45.599Z,95.38
2023-02-12T12:33:21.072Z,96.09
2023-02-12T12:33:26.177Z,96.09
2023-02-12T12:36:06.311Z,95.83
2023-02-12T12:38:26.162Z,95.83
2023-02-12T12:38:42.565Z,95.40
2023-02-12T12:41:28.321Z,94.09
2023-02-12T12:43:26.125Z,94.09
2023-02-12T12:44:24.308Z,93.03
2023-02-12T12:46:59.797Z,91.80
2023-02-12T12:48:26.202Z,91.80
2023-02-12T12:49:40.175Z,90.46
2023-02-12T12:52:26.915Z,89.39
2023-02-12T12:53:26.171Z,89.39
2023-02-12T12:55:06.618Z,89.24
2023-02-12T12:58:20.362Z,88.93
2023-02-12T12:58:26.171Z,88.93
2023-02-12T13:01:06.196Z,88.83
2023-02-12T13:03:26.180Z,88.83
2023-02-12T13:03:55.253Z,87.97
2023-02-12T13:06:35.828Z,86.66
2023-02-12T13:08:26.168Z,86.66
2023-02-12T13:09:08.423Z,87.26
2023-02-12T13:11:42.593Z,87.65
2023-02-12T13:13:26.166Z,23
2023-02-12T13:14:25.534Z,87.96
2023-02-12T13:17:03.768Z,87.90
2023-02-12T13:18:26.173Z,87.90
2023-02-12T13:19:51.864Z,87.90
2023-02-12T13:22:53.371Z,87.50
2023-02-12T13:23:26.161Z,87.50
2023-02-12T13:25:38.311Z,87.95
2023-02-12T13:28:09.795Z,89.29
2023-02-12T13:28:26.175Z,89.29
2023-02-12T13:30:49.841Z,90.57
2023-02-12T13:33:24.002Z,90.95
2023-02-12T13:33:26.162Z,90.95
2023-02-12T13:35:55.271Z,90.70
2023-02-12T13:38:31.327Z,89.02
2023-02-12T13:38:31.460Z,89.02
2023-02-12T13:41:02.061Z,88.75
2023-02-12T13:43:26.168Z,88.75
2023-02-12T13:43:47.187Z,88.88
2023-02-12T13:46:40.555Z,87.87
2023-02-12T13:48:26.171Z,87.87
2023-02-12T13:49:32.162Z,88.08
2023-02-12T13:52:14.210Z,88.43
2023-02-12T13:53:26.153Z,88.43
2023-02-12T13:54:56.076Z,89.15
2023-02-12T13:57:22.657Z,89.05
2023-02-12T13:58:26.180Z,89.05
2023-02-12T13:59:54.102Z,88.61
2023-02-12T14:02:43.168Z,87.82
2023-02-12T14:03:26.191Z,87.82
2023-02-12T14:05:30.112Z,87.92
2023-02-12T14:08:00.038Z,88.43
2023-02-12T14:08:26.151Z,88.43
2023-02-12T14:10:41.526Z,87.64
2023-02-12T14:13:17.491Z,87.67
2023-02-12T14:13:26.227Z,87.67
2023-02-12T14:15:51.056Z,87.66
2023-02-12T14:18:43.933Z,88.08
2023-02-12T14:18:44.095Z,88.08
2023-02-12T14:21:13.064Z,88.70
2023-02-12T14:23:26.156Z,88.70
2023-02-12T14:23:45.928Z,88.65
2023-02-12T14:26:18.120Z,88.87
2023-02-12T14:28:26.173Z,88.87
2023-02-12T14:28:47.285Z,89.87
2023-02-12T14:31:19.909Z,90.69
2023-02-12T14:33:26.173Z,90.69
2023-02-12T14:33:48.894Z,90.62
2023-02-12T14:36:19.978Z,91.22
2023-02-12T14:38:26.998Z,91.22
2023-02-12T14:38:47.846Z,90.92
2023-02-12T14:41:37.524Z,91.32
2023-02-12T14:43:26.170Z,91.32
2023-02-12T14:44:27.315Z,91.32
2023-02-12T14:46:56.094Z,92.12
2023-02-12T14:48:26.164Z,92.12
2023-02-12T14:49:29.939Z,93.42
2023-02-12T14:52:15.152Z,95.18
2023-02-12T14:53:26.176Z,95.18
2023-02-12T14:55:00.885Z,96.87
2023-02-12T14:57:39.954Z,97.83
2023-02-12T14:58:26.161Z,97.83
2023-02-12T15:00:18.737Z,99.25
2023-02-12T15:02:59.820Z,100.00
2023-02-12T15:03:26.169Z,100.00
2023-02-12T15:05:30.346Z,100.00
2023-02-12T15:08:13.891Z,100.00
2023-02-12T15:08:26.186Z,100.00
2023-02-12T15:10:58.150Z,100.00
2023-02-12T15:13:47.959Z,100.00
2023-02-12T15:13:48.126Z,100.00
2023-02-12T15:16:24.417Z,100.00
2023-02-12T15:18:26.140Z,100.00
2023-02-12T15:19:00.368Z,100.00
2023-02-12T15:21:29.086Z,100.00
2023-02-12T15:23:26.169Z,100.00
2023-02-12T15:24:09.127Z,100.00
2023-02-12T15:26:48.601Z,100.00
2023-02-12T15:28:26.233Z,100.00
2023-02-12T15:29:41.135Z,100.00
2023-02-12T15:32:15.114Z,100.00
2023-02-12T15:33:26.147Z,100.00
2023-02-12T15:34:42.859Z,100.00
2023-02-12T15:37:09.940Z,99.51
2023-02-12T15:38:26.168Z,99.51
2023-02-12T15:39:44.796Z,100.00
2023-02-12T15:42:52.289Z,99.43
2023-02-12T15:43:26.168Z,99.43
2023-02-12T15:45:22.510Z,99.89
2023-02-12T15:48:12.336Z,100.00
2023-02-12T15:48:26.165Z,100.00
2023-02-12T15:51:06.427Z,100.00
2023-02-12T15:53:26.180Z,100.00
2023-02-12T15:53:33.646Z,100.00
2023-02-12T15:56:01.919Z,100.00
2023-02-12T15:58:26.167Z,100.00
2023-02-12T15:58:53.069Z,100.00
2023-02-12T16:01:22.648Z,100.00
2023-02-12T16:03:26.180Z,100.00
2023-02-12T16:03:52.340Z,100.00
2023-02-12T16:06:21.096Z,100.00
2023-02-12T16:08:26.162Z,100.00
2023-02-12T16:08:57.036Z,100.00
2023-02-12T16:11:25.437Z,100.00
2023-02-12T16:13:26.174Z,100.00
2023-02-12T16:13:55.807Z,100.00
2023-02-12T16:16:31.087Z,100.00
2023-02-12T16:18:26.162Z,100.00
2023-02-12T16:19:18.390Z,100.00
2023-02-12T16:21:48.179Z,100.00
2023-02-12T16:23:26.181Z,100.00
2023-02-12T16:24:35.711Z,100.00
2023-02-12T16:27:09.564Z,100.00
2023-02-12T16:28:26.246Z,100.00
2023-02-12T16:29:43.677Z,100.00
2023-02-12T16:32:31.000Z,100.00
2023-02-12T16:33:26.157Z,100.00
2023-02-12T16:35:09.667Z,100.00
2023-02-12T16:37:35.974Z,100.00
2023-02-12T16:38:26.152Z,100.00
2023-02-12T16:40:14.235Z,100.00
2023-02-12T16:42:46.596Z,100.00
2023-02-12T16:43:26.192Z,100.00
2023-02-12T16:45:24.972Z,100.00
2023-02-12T16:47:52.793Z,100.00
2023-02-12T16:48:26.154Z,100.00
2023-02-12T16:50:23.748Z,100.00
2023-02-12T16:53:00.018Z,100.00
2023-02-12T16:53:26.177Z,100.00
2023-02-12T16:55:26.480Z,100.00
2023-02-12T16:57:52.936Z,100.00
2023-02-12T16:58:26.160Z,100.00
2023-02-12T17:00:19.818Z,100.00
2023-02-12T17:02:47.228Z,100.00
2023-02-12T17:03:26.213Z,100.00
2023-02-12T17:05:16.926Z,100.00
2023-02-12T17:07:43.710Z,100.00
2023-02-12T17:08:26.169Z,100.00
2023-02-12T17:10:17.315Z,100.00
2023-02-12T17:12:52.122Z,100.00
2023-02-12T17:13:26.160Z,100.00
2023-02-12T17:15:29.076Z,100.00
2023-02-12T17:17:55.457Z,100.00
2023-02-12T17:18:26.157Z,100.00
2023-02-12T17:20:22.101Z,100.00
2023-02-12T17:22:55.111Z,100.00
2023-02-12T17:23:26.200Z,100.00
2023-02-12T17:25:21.631Z,100.00
2023-02-12T17:27:47.996Z,100.00
2023-02-12T17:28:26.426Z,100.00
2023-02-12T17:30:19.541Z,100.00
2023-02-12T17:32:45.915Z,100.00
2023-02-12T17:33:26.161Z,100.00
2023-02-12T17:35:12.795Z,100.00
2023-02-12T17:37:39.225Z,100.00
2023-02-12T17:38:26.386Z,100.00
2023-02-12T17:40:06.893Z,100.00
2023-02-12T17:42:33.498Z,100.00
2023-02-12T17:43:26.164Z,100.00
2023-02-12T17:44:59.989Z,100.00
2023-02-12T17:47:26.423Z,100.00
2023-02-12T17:48:26.207Z,100.00
2023-02-12T17:49:53.148Z,100.00
2023-02-12T17:52:19.519Z,100.00
2023-02-12T17:53:26.169Z,100.00
2023-02-12T17:54:46.164Z,100.00
2023-02-12T17:57:14.671Z,100.00
2023-02-12T17:58:26.166Z,100.00
2023-02-12T17:59:41.579Z,100.00
2023-02-12T18:02:10.572Z,100.00
2023-02-12T18:03:26.187Z,100.00
2023-02-12T18:04:37.013Z,100.00
2023-02-12T18:07:04.617Z,100.00
2023-02-12T18:08:26.229Z,100.00
2023-02-12T18:09:31.402Z,100.00
2023-02-12T18:11:57.812Z,100.00
2023-02-12T18:13:26.164Z,100.00
2023-02-12T18:14:24.160Z,100.00
2023-02-12T18:16:50.712Z,100.00
2023-02-12T18:18:26.167Z,100.00
2023-02-12T18:19:17.308Z,100.00
2023-02-12T18:21:43.683Z,100.00
2023-02-12T18:23:26.153Z,100.00
2023-02-12T18:24:10.673Z,100.00
2023-02-12T18:26:37.096Z,100.00
2023-02-12T18:28:26.256Z,100.00
2023-02-12T18:29:03.544Z,100.00
2023-02-12T18:31:30.379Z,100.00
2023-02-12T18:33:26.210Z,100.00
2023-02-12T18:33:56.875Z,100.00
2023-02-12T18:36:23.454Z,100.00
2023-02-12T18:38:26.162Z,100.00
2023-02-12T18:38:51.754Z,100.00
2023-02-12T18:41:25.174Z,100.00
2023-02-12T18:43:26.182Z,100.00
2023-02-12T18:43:52.412Z,100.00
2023-02-12T18:46:23.945Z,100.00
2023-02-12T18:48:26.159Z,100.00
2023-02-12T18:48:50.909Z,100.00
2023-02-12T18:51:23.392Z,100.00
2023-02-12T18:53:26.195Z,100.00
2023-02-12T18:54:05.265Z,100.00
2023-02-12T18:56:35.578Z,100.00
2023-02-12T18:58:26.162Z,100.00
2023-02-12T18:59:04.748Z,100.00
2023-02-12T19:01:32.828Z,100.00
2023-02-12T19:03:26.197Z,100.00
2023-02-12T19:04:02.810Z,100.00
2023-02-12T19:06:31.009Z,100.00
2023-02-12T19:08:26.168Z,100.00
2023-02-12T19:08:59.153Z,100.00
2023-02-12T19:11:26.784Z,100.00
2023-02-12T19:13:26.193Z,100.00
2023-02-12T19:13:53.475Z,100.00
2023-02-12T19:16:21.276Z,100.00
2023-02-12T19:18:26.196Z,100.00
2023-02-12T19:18:54.634Z,100.00
2023-02-12T19:21:22.227Z,100.00
2023-02-12T19:23:28.215Z,100.00
2023-02-12T19:23:52.255Z,100.00
2023-02-12T19:26:18.939Z,100.00
2023-02-12T19:28:26.196Z,100.00
2023-02-12T19:28:45.470Z,100.00
2023-02-12T19:31:15.794Z,100.00
2023-02-12T19:33:26.175Z,100.00
2023-02-12T19:33:43.888Z,100.00
2023-02-12T19:36:12.510Z,100.00
2023-02-12T19:38:26.161Z,100.00
2023-02-12T19:38:39.197Z,100.00
2023-02-12T19:41:08.661Z,100.00
2023-02-12T19:43:26.194Z,100.00
2023-02-12T19:43:35.311Z,100.00
2023-02-12T19:46:10.271Z,100.00
2023-02-12T19:48:26.186Z,100.00
2023-02-12T19:48:37.410Z,100.00
2023-02-12T19:51:04.724Z,100.00
2023-02-12T19:53:26.152Z,100.00
2023-02-12T19:53:31.766Z,100.00
2023-02-12T19:56:02.710Z,100.00
2023-02-12T19:58:26.189Z,100.00
2023-02-12T19:58:31.752Z,100.00
2023-02-12T20:00:58.496Z,100.00
2023-02-12T20:03:26.310Z,100.00
2023-02-12T20:03:26.459Z,100.00
2023-02-12T20:06:04.563Z,100.00
2023-02-12T20:08:26.176Z,100.00
2023-02-12T20:08:33.196Z,100.00
2023-02-12T20:10:59.508Z,100.00
2023-02-12T20:13:25.882Z,100.00
2023-02-12T20:13:26.194Z,100.00
2023-02-12T20:15:52.382Z,100.00
2023-02-12T20:18:18.786Z,100.00
2023-02-12T20:18:26.170Z,100.00
2023-02-12T20:20:45.166Z,100.00
2023-02-12T20:23:13.916Z,100.00
2023-02-12T20:23:26.170Z,100.00
2023-02-12T20:25:44.395Z,100.00
2023-02-12T20:28:11.266Z,100.00
2023-02-12T20:28:26.188Z,100.00
2023-02-12T20:30:42.223Z,100.00
2023-02-12T20:33:09.919Z,100.00
2023-02-12T20:33:26.202Z,100.00
2023-02-12T20:35:37.284Z,100.00
2023-02-12T20:38:07.146Z,100.00
2023-02-12T20:38:26.175Z,100.00
2023-02-12T20:40:33.653Z,100.00
2023-02-12T20:43:00.805Z,100.00
2023-02-12T20:43:26.189Z,100.00
2023-02-12T20:45:27.942Z,100.00
2023-02-12T20:47:54.360Z,100.00
2023-02-12T20:48:26.171Z,100.00
2023-02-12T20:50:20.770Z,100.00
2023-02-12T20:52:47.428Z,100.00
2023-02-12T20:53:26.197Z,100.00
2023-02-12T20:55:13.771Z,100.00
2023-02-12T20:57:40.207Z,100.00
2023-02-12T20:58:26.187Z,100.00
2023-02-12T21:00:07.307Z,100.00
2023-02-12T21:02:33.685Z,100.00
2023-02-12T21:05:00.657Z,100.00
2023-02-12T21:07:27.052Z,100.00
2023-02-12T21:08:26.190Z,100.00
2023-02-12T21:09:54.217Z,100.00
2023-02-12T21:12:20.660Z,100.00